Time;durP1;ratioP1;P1;durP2;ratioP2;P2;SDS_P1;SDS_P2;PMS_P1;PMS_P2;Temp;Humidity;BMP_temperature;BMP_pressure;BME280_temperature;BME280_humidity;BME280_pressure;Samples;Min_cycle;Max_cycle;Signal;HPM_P1;HPM_P2
2021/06/09 00:00:01;;;;;;;7.83;6.30;;;15.30;99.90;;;;;;4960801;28;20680;-76
2021/06/09 00:02:28;;;;;;;8.23;6.60;;;15.20;99.90;;;;;;4963104;28;20294;-76
2021/06/09 00:04:54;;;;;;;9.13;5.97;;;15.20;99.90;;;;;;4960068;28;20246;-76
2021/06/09 00:07:21;;;;;;;8.07;6.20;;;15.20;99.90;;;;;;4958059;28;20626;-76
2021/06/09 00:09:49;;;;;;;8.73;6.63;;;15.20;99.90;;;;;;4968908;28;20614;-76
2021/06/09 00:12:15;;;;;;;7.47;6.23;;;15.20;99.90;;;;;;4963193;28;20673;-77
2021/06/09 00:14:41;;;;;;;7.60;6.37;;;15.20;99.90;;;;;;4961301;28;20277;-76
2021/06/09 00:17:08;;;;;;;8.73;6.47;;;15.20;99.90;;;;;;4964769;28;20286;-76
2021/06/09 00:19:35;;;;;;;7.83;6.10;;;15.20;99.90;;;;;;4966627;28;20234;-76
2021/06/09 00:22:01;;;;;;;7.50;6.47;;;15.10;99.90;;;;;;4969945;28;20226;-76
2021/06/09 00:24:27;;;;;;;12.03;6.33;;;15.00;99.90;;;;;;4965501;28;20667;-76
2021/06/09 00:26:56;;;;;;;8.93;6.60;;;14.90;99.90;;;;;;4975391;28;20206;-76
2021/06/09 00:29:23;;;;;;;8.53;7.00;;;14.90;99.90;;;;;;4959365;28;20286;-76
2021/06/09 00:31:50;;;;;;;8.40;6.47;;;14.90;99.90;;;;;;4971792;28;20226;-76
2021/06/09 00:34:17;;;;;;;8.53;7.10;;;14.90;99.90;;;;;;4969062;28;20214;-76
2021/06/09 00:36:43;;;;;;;8.13;6.67;;;14.90;99.90;;;;;;4971908;28;20564;-76
2021/06/09 00:39:09;;;;;;;7.60;6.80;;;15.00;99.90;;;;;;4970737;28;20293;-76
2021/06/09 00:41:36;;;;;;;8.17;6.80;;;15.00;99.90;;;;;;4968574;28;20281;-77
2021/06/09 00:44:06;;;;;;;9.47;6.93;;;14.90;99.90;;;;;;4959951;28;20683;-76
2021/06/09 00:46:34;;;;;;;8.10;6.67;;;14.90;99.90;;;;;;4959736;28;20254;-76
2021/06/09 00:49:01;;;;;;;8.37;6.57;;;14.90;99.90;;;;;;4956546;29;20325;-76
2021/06/09 00:51:27;;;;;;;10.87;6.77;;;14.80;99.90;;;;;;4966014;28;20309;-77
2021/06/09 00:53:56;;;;;;;11.17;7.13;;;14.80;99.90;;;;;;4963222;28;20235;-76
2021/06/09 00:56:25;;;;;;;9.67;6.60;;;14.80;99.90;;;;;;4965426;28;20261;-76
2021/06/09 00:58:52;;;;;;;8.23;6.40;;;14.80;99.90;;;;;;4974775;28;20601;-76
2021/06/09 01:01:22;;;;;;;11.73;6.70;;;14.70;99.90;;;;;;4968143;28;20303;-76
2021/06/09 01:03:49;;;;;;;9.33;6.67;;;14.70;99.90;;;;;;4956042;29;20247;-76
2021/06/09 01:06:16;;;;;;;9.17;6.37;;;14.60;99.90;;;;;;4970766;28;20211;-77
2021/06/09 01:08:43;;;;;;;8.77;7.30;;;14.60;99.90;;;;;;4957649;28;20265;-76
2021/06/09 01:11:12;;;;;;;10.70;6.70;;;14.50;99.90;;;;;;4967511;28;20203;-76
2021/06/09 01:13:40;;;;;;;9.47;6.67;;;14.50;99.90;;;;;;4961539;28;20672;-76
2021/06/09 01:16:07;;;;;;;7.80;6.97;;;14.40;99.90;;;;;;4957174;28;20234;-77
2021/06/09 01:18:35;;;;;;;9.87;6.37;;;14.40;99.90;;;;;;4973047;28;20286;-76
2021/06/09 01:21:02;;;;;;;9.10;7.23;;;14.40;99.90;;;;;;4960009;28;20238;-77
2021/06/09 01:23:30;;;;;;;9.47;6.93;;;14.30;99.90;;;;;;4963197;28;20262;-76
2021/06/09 01:25:58;;;;;;;8.60;6.37;;;14.30;99.90;;;;;;4964367;28;20290;-77
2021/06/09 01:28:25;;;;;;;11.67;6.90;;;14.30;99.90;;;;;;4955707;28;20340;-77
2021/06/09 01:30:53;;;;;;;11.60;7.20;;;14.30;99.90;;;;;;4958768;28;20290;-76
2021/06/09 01:33:20;;;;;;;8.63;6.70;;;14.40;99.90;;;;;;4959702;28;20235;-76
2021/06/09 01:35:50;;;;;;;7.57;6.30;;;14.40;99.90;;;;;;4966029;28;20238;-76
2021/06/09 01:38:17;;;;;;;8.23;6.53;;;14.40;99.90;;;;;;4971968;28;20282;-76
2021/06/09 01:40:46;;;;;;;11.23;7.33;;;14.50;99.90;;;;;;4959356;28;20198;-77
2021/06/09 01:43:13;;;;;;;8.30;6.67;;;14.50;99.90;;;;;;4963906;28;20207;-76
2021/06/09 01:45:40;;;;;;;8.37;7.07;;;14.60;99.90;;;;;;4970511;28;20238;-76
2021/06/09 01:48:08;;;;;;;8.83;6.90;;;14.60;99.90;;;;;;4967846;28;20346;-76
2021/06/09 01:50:36;;;;;;;8.33;6.57;;;14.60;99.90;;;;;;4950781;28;20214;-76
2021/06/09 01:53:03;;;;;;;8.47;6.50;;;14.50;99.90;;;;;;4965983;28;20211;-76
2021/06/09 01:55:32;;;;;;;10.63;7.00;;;14.40;99.90;;;;;;4965004;28;20934;-76
2021/06/09 01:58:00;;;;;;;9.80;7.40;;;14.40;99.90;;;;;;4966252;28;20558;-76
2021/06/09 02:00:30;;;;;;;9.77;7.23;;;14.40;99.90;;;;;;4971410;28;20289;-76
2021/06/09 02:02:58;;;;;;;10.60;7.37;;;14.30;99.90;;;;;;4959924;28;20237;-77
2021/06/09 02:05:27;;;;;;;9.80;7.77;;;14.20;99.90;;;;;;4965388;28;20561;-76
2021/06/09 02:07:56;;;;;;;9.97;7.37;;;14.20;99.90;;;;;;4964602;28;20715;-76
2021/06/09 02:10:23;;;;;;;10.73;7.77;;;14.20;99.90;;;;;;4967066;28;20202;-77
2021/06/09 02:12:51;;;;;;;10.67;8.00;;;14.20;99.90;;;;;;4966865;28;20291;-76
2021/06/09 02:15:21;;;;;;;9.57;7.57;;;14.20;99.90;;;;;;4973829;28;20213;-76
2021/06/09 02:17:56;;;;;;;11.87;7.93;;;14.10;99.90;;;;;;4965794;28;20230;-76
2021/06/09 02:20:23;;;;;;;11.83;8.43;;;14.10;99.90;;;;;;4959117;28;20261;-76
2021/06/09 02:22:50;;;;;;;12.40;8.90;;;14.10;99.90;;;;;;4968115;28;20292;-76
2021/06/09 02:25:18;;;;;;;11.70;8.50;;;14.00;99.90;;;;;;4970438;28;20234;-76
2021/06/09 02:27:45;;;;;;;10.83;8.57;;;14.00;99.90;;;;;;4970594;28;20258;-77
2021/06/09 02:30:12;;;;;;;12.70;8.23;;;14.00;99.90;;;;;;4971584;28;20325;-77
2021/06/09 02:32:42;;;;;;;11.17;8.13;;;14.00;99.90;;;;;;4946467;28;20234;-77
2021/06/09 02:35:15;;;;;;;10.83;8.53;;;14.00;99.90;;;;;;4958163;28;20253;-76
2021/06/09 02:37:41;;;;;;;13.47;8.63;;;13.90;99.90;;;;;;4965702;28;20290;-77
2021/06/09 02:40:09;;;;;;;11.23;8.10;;;13.90;99.90;;;;;;4961970;28;20225;-76
2021/06/09 02:42:36;;;;;;;11.37;8.47;;;13.90;99.90;;;;;;4957793;28;20724;-76
2021/06/09 02:45:07;;;;;;;14.30;8.40;;;13.90;99.90;;;;;;4970998;28;20294;-77
2021/06/09 02:47:36;;;;;;;12.87;8.50;;;13.80;99.90;;;;;;4964633;28;20239;-76
2021/06/09 02:50:06;;;;;;;13.63;8.57;;;13.80;99.90;;;;;;4943863;28;20226;-76
2021/06/09 02:52:39;;;;;;;11.83;8.70;;;13.70;99.90;;;;;;4970448;28;20242;-76
2021/06/09 02:55:13;;;;;;;11.20;8.33;;;13.80;99.90;;;;;;4953981;29;20746;-76
2021/06/09 02:57:45;;;;;;;12.27;8.90;;;13.70;99.90;;;;;;4961947;28;20203;-76
2021/06/09 03:00:17;;;;;;;13.70;9.23;;;13.70;99.90;;;;;;4967632;28;20241;-76
2021/06/09 03:02:52;;;;;;;10.53;8.43;;;13.70;99.90;;;;;;4969125;28;20612;-76
2021/06/09 03:05:25;;;;;;;10.47;8.53;;;13.70;99.90;;;;;;4966055;28;20593;-77
2021/06/09 03:08:04;;;;;;;14.47;9.33;;;13.70;99.90;;;;;;4964734;28;20285;-77
2021/06/09 03:10:41;;;;;;;13.13;8.93;;;13.70;99.90;;;;;;4961781;28;20235;-76
2021/06/09 03:13:24;;;;;;;13.53;9.00;;;13.70;99.90;;;;;;4962410;28;20318;-77
2021/06/09 03:15:56;;;;;;;11.37;8.90;;;13.70;99.90;;;;;;4946119;28;20209;-76
2021/06/09 03:18:28;;;;;;;11.10;8.23;;;13.70;99.90;;;;;;4966922;28;20194;-76
2021/06/09 03:20:59;;;;;;;11.57;8.57;;;13.80;99.90;;;;;;4965381;28;20313;-77
2021/06/09 03:23:36;;;;;;;10.63;8.40;;;13.80;99.90;;;;;;4962433;28;20293;-76
2021/06/09 03:26:08;;;;;;;11.87;8.90;;;13.80;99.90;;;;;;4961154;28;20226;-76
2021/06/09 03:28:45;;;;;;;10.70;8.80;;;13.80;99.90;;;;;;4961549;28;20350;-76
2021/06/09 03:31:17;;;;;;;11.53;9.57;;;13.90;99.90;;;;;;4968333;28;20233;-76
2021/06/09 03:33:49;;;;;;;12.53;8.43;;;13.90;99.90;;;;;;4956966;28;20234;-76
2021/06/09 03:36:21;;;;;;;13.00;9.27;;;13.90;99.90;;;;;;4966513;28;20209;-77
2021/06/09 03:38:52;;;;;;;12.23;9.13;;;14.00;99.90;;;;;;4965722;28;20298;-77
2021/06/09 03:41:21;;;;;;;12.50;9.23;;;14.00;99.90;;;;;;4964776;28;20290;-77
2021/06/09 03:43:52;;;;;;;14.13;8.53;;;13.90;99.90;;;;;;4955935;28;20202;-77
2021/06/09 03:46:22;;;;;;;14.43;9.47;;;13.90;99.90;;;;;;4964328;28;20281;-76
2021/06/09 03:48:51;;;;;;;12.87;9.03;;;13.90;99.90;;;;;;4963688;28;20242;-76
2021/06/09 03:51:21;;;;;;;10.27;8.83;;;13.90;99.90;;;;;;4951737;28;20221;-76
2021/06/09 03:53:49;;;;;;;11.60;8.60;;;13.90;99.90;;;;;;4970520;28;20285;-77
2021/06/09 03:56:18;;;;;;;12.67;8.90;;;13.80;99.90;;;;;;4970345;28;20198;-76
2021/06/09 03:58:46;;;;;;;11.73;9.50;;;13.80;99.90;;;;;;4971957;28;20804;-76
2021/06/09 04:01:13;;;;;;;11.80;9.47;;;13.80;99.90;;;;;;4973117;28;20206;-76
2021/06/09 04:03:42;;;;;;;11.33;9.03;;;13.80;99.90;;;;;;4964576;28;20289;-77
2021/06/09 04:06:12;;;;;;;13.90;8.97;;;13.80;99.90;;;;;;4961768;28;20289;-76
2021/06/09 04:08:41;;;;;;;12.20;8.67;;;13.80;99.90;;;;;;4968204;28;20306;-76
2021/06/09 04:11:09;;;;;;;15.37;9.30;;;13.80;99.90;;;;;;4957493;28;20238;-77
2021/06/09 04:13:39;;;;;;;12.77;9.83;;;13.90;99.90;;;;;;4967614;28;20258;-76
2021/06/09 04:16:08;;;;;;;14.27;9.80;;;13.90;99.90;;;;;;4975643;28;20238;-76
2021/06/09 04:18:36;;;;;;;12.73;10.00;;;14.00;99.90;;;;;;4967168;28;20698;-77
2021/06/09 04:21:05;;;;;;;13.00;9.70;;;14.00;99.90;;;;;;4962721;28;20656;-77
2021/06/09 04:23:31;;;;;;;13.17;10.03;;;14.10;99.90;;;;;;4972196;28;20740;-76
2021/06/09 04:26:01;;;;;;;13.90;9.70;;;14.10;99.90;;;;;;4970041;28;20301;-77
2021/06/09 04:28:28;;;;;;;14.90;10.13;;;14.20;99.90;;;;;;4965766;28;20281;-77
2021/06/09 04:30:55;;;;;;;13.10;9.43;;;14.30;99.90;;;;;;4965881;28;20226;-77
2021/06/09 04:33:28;;;;;;;13.73;9.37;;;14.30;99.90;;;;;;4968712;28;20779;-77
2021/06/09 04:35:55;;;;;;;10.70;9.10;;;14.40;99.90;;;;;;4971998;28;20265;-76
2021/06/09 04:38:21;;;;;;;12.07;8.90;;;14.50;99.90;;;;;;4976339;28;20242;-77
2021/06/09 04:40:51;;;;;;;11.17;8.87;;;14.50;99.90;;;;;;4976266;28;20250;-76
2021/06/09 04:43:22;;;;;;;12.63;9.10;;;14.40;99.90;;;;;;4975556;28;20202;-76
2021/06/09 04:45:49;;;;;;;11.60;9.13;;;14.40;99.90;;;;;;4975036;28;20234;-77
2021/06/09 04:48:17;;;;;;;16.73;9.33;;;14.40;99.90;;;;;;4970305;28;20353;-77
2021/06/09 04:50:47;;;;;;;12.93;9.20;;;14.50;99.90;;;;;;4963811;28;20206;-77
2021/06/09 04:53:14;;;;;;;11.43;9.93;;;14.50;99.90;;;;;;4975646;28;20625;-77
2021/06/09 04:55:43;;;;;;;11.93;9.53;;;14.60;99.90;;;;;;4946641;29;20230;-77
2021/06/09 04:58:11;;;;;;;11.27;9.27;;;14.70;99.90;;;;;;4962509;28;20202;-77
2021/06/09 05:00:39;;;;;;;10.97;9.60;;;14.80;99.90;;;;;;4974806;28;20301;-77
2021/06/09 05:03:06;;;;;;;10.90;8.83;;;14.80;99.90;;;;;;4960843;28;20305;-77
2021/06/09 05:05:32;;;;;;;13.50;9.90;;;14.90;99.90;;;;;;4946969;28;20286;-76
2021/06/09 05:07:59;;;;;;;11.30;9.03;;;15.00;99.90;;;;;;4970934;28;20245;-78
2021/06/09 05:10:27;;;;;;;13.73;9.27;;;15.00;99.90;;;;;;4971801;28;20257;-78
2021/06/09 05:12:57;;;;;;;11.37;8.80;;;15.10;99.90;;;;;;4973537;28;20743;-78
2021/06/09 05:15:25;;;;;;;12.47;9.27;;;15.10;99.90;;;;;;4974934;28;20634;-78
2021/06/09 05:17:53;;;;;;;9.40;8.40;;;15.10;99.90;;;;;;4966908;28;20230;-78
2021/06/09 05:20:23;;;;;;;11.80;8.63;;;15.20;99.90;;;;;;4970698;28;20252;-76
2021/06/09 05:22:53;;;;;;;10.47;8.43;;;15.20;99.90;;;;;;4956778;28;20731;-76
2021/06/09 05:25:21;;;;;;;13.00;8.43;;;15.30;99.90;;;;;;4969714;28;20736;-76
2021/06/09 05:27:49;;;;;;;11.07;8.67;;;15.40;99.90;;;;;;4972869;28;20233;-77
2021/06/09 05:30:17;;;;;;;11.30;8.73;;;15.40;99.90;;;;;;4972900;28;20257;-78
2021/06/09 05:32:45;;;;;;;13.27;9.17;;;15.50;99.90;;;;;;4971803;28;20207;-76
2021/06/09 05:35:16;;;;;;;11.70;9.07;;;15.50;99.90;;;;;;4949088;28;20207;-76
2021/06/09 05:37:43;;;;;;;12.23;9.07;;;15.60;99.90;;;;;;4969313;28;20277;-77
2021/06/09 05:40:11;;;;;;;12.93;9.57;;;15.70;99.90;;;;;;4961454;28;20233;-77
2021/06/09 05:42:38;;;;;;;10.67;9.03;;;15.80;99.90;;;;;;4971343;28;20637;-77
2021/06/09 05:45:06;;;;;;;10.83;9.07;;;15.80;99.90;;;;;;4971095;28;20361;-77
2021/06/09 05:47:40;;;;;;;16.13;9.50;;;15.90;99.90;;;;;;4975262;28;20265;-77
2021/06/09 05:50:13;;;;;;;12.10;8.93;;;16.10;99.90;;;;;;4968438;28;20230;-77
2021/06/09 05:52:40;;;;;;;9.63;8.53;;;16.40;99.90;;;;;;4969052;28;20234;-77
2021/06/09 05:55:13;;;;;;;11.03;8.73;;;16.70;99.90;;;;;;4960203;28;20205;-77
2021/06/09 05:57:40;;;;;;;10.50;8.27;;;16.70;99.90;;;;;;4947120;28;20552;-77
2021/06/09 06:00:08;;;;;;;9.13;8.23;;;17.60;99.90;;;;;;4982963;28;20281;-77
2021/06/09 06:02:36;;;;;;;11.57;8.57;;;18.60;99.90;;;;;;4947115;29;20298;-77
2021/06/09 06:05:03;;;;;;;8.57;6.93;;;20.00;99.90;;;;;;4964458;28;20190;-77
2021/06/09 06:07:33;;;;;;;9.80;7.32;;;20.90;99.90;;;;;;4956009;28;20230;-77
2021/06/09 06:10:00;;;;;;;7.75;6.43;;;21.40;99.90;;;;;;4969095;28;20255;-76
2021/06/09 06:12:27;;;;;;;8.05;6.85;;;21.50;99.90;;;;;;4966651;28;20242;-77
2021/06/09 06:14:54;;;;;;;6.55;5.95;;;21.80;99.90;;;;;;4952951;28;20240;-77
2021/06/09 06:17:21;;;;;;;8.07;6.40;;;21.80;99.90;;;;;;4974133;28;20242;-77
2021/06/09 06:19:49;;;;;;;8.43;6.15;;;20.50;99.90;;;;;;4968665;28;20727;-77
2021/06/09 06:22:16;;;;;;;7.50;6.07;;;20.30;99.90;;;;;;4966156;28;20245;-77
2021/06/09 06:24:46;;;;;;;8.93;6.88;;;20.90;99.90;;;;;;4965451;28;20672;-77
2021/06/09 06:27:13;;;;;;;10.25;6.43;;;19.80;99.90;;;;;;4969651;28;20245;-77
2021/06/09 06:29:40;;;;;;;7.47;6.35;;;19.20;99.90;;;;;;4962318;28;20313;-77
2021/06/09 06:32:08;;;;;;;8.20;6.28;;;19.30;99.90;;;;;;4964695;28;20281;-77
2021/06/09 06:34:38;;;;;;;7.03;6.28;;;21.40;99.90;;;;;;4968875;28;20352;-78
2021/06/09 06:37:05;;;;;;;6.88;6.18;;;22.50;99.90;;;;;;4952846;28;20227;-78
2021/06/09 06:39:32;;;;;;;6.97;6.10;;;22.40;99.90;;;;;;4942216;28;20876;-78
2021/06/09 06:42:00;;;;;;;5.80;5.22;;;23.20;99.90;;;;;;4961160;28;20298;-77
2021/06/09 06:44:27;;;;;;;6.70;5.82;;;23.30;99.90;;;;;;4969804;28;20222;-77
2021/06/09 06:46:54;;;;;;;8.80;5.72;;;23.50;99.90;;;;;;4967762;28;20281;-77
2021/06/09 06:49:21;;;;;;;8.02;5.15;;;23.50;99.90;;;;;;4965300;28;20313;-78
2021/06/09 06:51:51;;;;;;;5.65;5.13;;;25.00;99.90;;;;;;4960743;28;20249;-77
2021/06/09 06:54:19;;;;;;;5.70;5.13;;;26.20;99.90;;;;;;4955707;28;20295;-77
2021/06/09 06:56:48;;;;;;;10.05;5.63;;;26.20;99.90;;;;;;4970009;28;20652;-77
2021/06/09 06:59:17;;;;;;;5.60;4.70;;;25.60;99.90;;;;;;4968956;28;20234;-77
2021/06/09 07:01:46;;;;;;;6.15;5.30;;;26.10;99.90;;;;;;4955165;28;20322;-77
2021/06/09 07:04:16;;;;;;;5.78;4.20;;;26.90;99.90;;;;;;4972840;28;20257;-79
2021/06/09 07:06:44;;;;;;;5.80;5.18;;;27.00;99.90;;;;;;4961688;28;20202;-78
2021/06/09 07:09:10;;;;;;;7.38;5.40;;;26.20;99.90;;;;;;4972512;28;20262;-78
2021/06/09 07:11:38;;;;;;;6.25;4.85;;;26.00;99.90;;;;;;4959765;28;20236;-78
2021/06/09 07:14:05;;;;;;;5.18;4.50;;;26.80;99.90;;;;;;4968648;28;20202;-74
2021/06/09 07:16:34;;;;;;;5.18;4.65;;;28.10;99.90;;;;;;4964484;28;20238;-78
2021/06/09 07:19:01;;;;;;;5.38;4.47;;;28.50;99.90;;;;;;4966253;28;20194;-76
2021/06/09 07:21:28;;;;;;;4.97;4.20;;;28.50;99.90;;;;;;4963053;28;20280;-78
2021/06/09 07:23:56;;;;;;;4.30;3.90;;;28.50;99.90;;;;;;4957552;28;20282;-75
2021/06/09 07:26:23;;;;;;;4.68;4.10;;;28.10;99.90;;;;;;4970532;28;20612;-76
2021/06/09 07:28:51;;;;;;;5.07;3.90;;;28.70;99.90;;;;;;4969153;28;20237;-75
2021/06/09 07:31:25;;;;;;;5.07;4.50;;;28.90;99.90;;;;;;4970576;28;20198;-78
2021/06/09 07:33:53;;;;;;;6.57;4.60;;;28.30;99.90;;;;;;4953308;28;20294;-78
2021/06/09 07:36:24;;;;;;;4.93;4.10;;;28.00;99.90;;;;;;4959220;28;20277;-78
2021/06/09 07:38:55;;;;;;;6.28;4.88;;;28.30;99.90;;;;;;4962520;28;20668;-76
2021/06/09 07:41:25;;;;;;;5.35;4.70;;;28.60;99.90;;;;;;4949837;28;20635;-78
2021/06/09 07:43:54;;;;;;;6.13;4.72;;;28.20;99.90;;;;;;4968114;28;20294;-78
2021/06/09 07:46:27;;;;;;;6.10;4.95;;;28.90;99.90;;;;;;4961981;28;20289;-78
2021/06/09 07:48:57;;;;;;;5.43;4.95;;;27.90;99.90;;;;;;4942428;29;20294;-78
2021/06/09 07:51:25;;;;;;;6.20;4.82;;;27.70;99.90;;;;;;4965366;28;20241;-78
2021/06/09 07:53:55;;;;;;;6.82;5.43;;;28.20;99.90;;;;;;4970460;28;20229;-78
2021/06/09 07:56:24;;;;;;;5.53;4.95;;;28.80;99.90;;;;;;4963641;28;20207;-78
2021/06/09 07:58:51;;;;;;;6.10;4.53;;;27.70;99.90;;;;;;4964621;28;20297;-78
2021/06/09 08:01:17;;;;;;;7.30;5.25;;;28.40;99.90;;;;;;4967991;28;20630;-78
2021/06/09 08:03:44;;;;;;;5.80;5.20;;;29.00;99.90;;;;;;4966081;28;21666;-79
2021/06/09 08:06:15;;;;;;;5.70;5.05;;;29.90;99.90;;;;;;4952671;28;20230;-78
2021/06/09 08:08:44;;;;;;;5.75;5.20;;;30.40;99.90;;;;;;4962609;28;20202;-79
2021/06/09 08:11:11;;;;;;;5.60;5.05;;;29.40;99.90;;;;;;4967765;28;20214;-78
2021/06/09 08:13:38;;;;;;;9.35;5.70;;;29.80;99.90;;;;;;4962218;28;20195;-78
2021/06/09 08:16:12;;;;;;;8.15;6.05;;;29.00;99.90;;;;;;4967001;28;20655;-78
2021/06/09 08:18:38;;;;;;;5.47;5.00;;;29.20;99.90;;;;;;4967068;28;20269;-79
2021/06/09 08:21:08;;;;;;;6.75;6.15;;;30.30;99.90;;;;;;4966884;28;20290;-78
2021/06/09 08:23:36;;;;;;;6.05;5.07;;;30.10;99.90;;;;;;4965443;28;20274;-76
2021/06/09 08:26:05;;;;;;;8.55;6.15;;;30.50;99.90;;;;;;4964186;28;20238;-78
2021/06/09 08:28:35;;;;;;;6.40;5.72;;;29.80;99.90;;;;;;4964729;28;20298;-79
2021/06/09 08:31:01;;;;;;;5.47;5.03;;;30.20;99.90;;;;;;4962511;28;20227;-79
2021/06/09 08:33:28;;;;;;;6.53;5.53;;;30.60;99.90;;;;;;4953084;28;20235;-78
2021/06/09 08:35:54;;;;;;;8.65;6.20;;;31.10;99.90;;;;;;4961793;28;20634;-78
2021/06/09 08:38:21;;;;;;;6.07;5.47;;;30.90;99.90;;;;;;4963857;28;20287;-79
2021/06/09 08:40:50;;;;;;;7.65;5.53;;;30.20;99.90;;;;;;4957559;28;20203;-79
2021/06/09 08:43:17;;;;;;;5.22;4.60;;;32.20;99.90;;;;;;4974311;28;20222;-79
2021/06/09 08:45:45;;;;;;;7.38;5.97;;;32.20;99.90;;;;;;4963554;28;20723;-79
2021/06/09 08:48:12;;;;;;;6.10;5.50;;;31.30;99.90;;;;;;4955437;28;20223;-76
2021/06/09 08:50:39;;;;;;;6.57;5.95;;;31.70;99.90;;;;;;4974948;28;20285;-77
2021/06/09 08:53:06;;;;;;;5.93;5.43;;;31.10;99.90;;;;;;4957272;28;20238;-76
2021/06/09 08:55:34;;;;;;;7.80;5.68;;;31.20;99.90;;;;;;4964217;28;20614;-78
2021/06/09 08:58:04;;;;;;;5.80;5.30;;;32.10;99.90;;;;;;4970747;28;20282;-78
2021/06/09 09:00:32;;;;;;;6.05;5.35;;;31.40;99.90;;;;;;4960174;28;20347;-78
2021/06/09 09:03:00;;;;;;;7.57;6.03;;;31.30;99.90;;;;;;4960056;28;20199;-78
2021/06/09 09:05:27;;;;;;;7.05;5.40;;;32.20;99.90;;;;;;4957121;28;20195;-78
2021/06/09 09:07:56;;;;;;;6.05;5.43;;;32.60;99.90;;;;;;4963231;28;20609;-78
2021/06/09 09:10:24;;;;;;;6.07;5.47;;;31.90;99.90;;;;;;4970468;28;20210;-78
2021/06/09 09:12:51;;;;;;;6.20;5.60;;;30.70;99.90;;;;;;4959972;28;20294;-78
2021/06/09 09:15:19;;;;;;;7.32;5.50;;;30.70;99.90;;;;;;4955132;29;20258;-78
2021/06/09 09:17:50;;;;;;;6.03;5.50;;;31.60;99.90;;;;;;4962636;28;20226;-77
2021/06/09 09:20:22;;;;;;;5.80;5.20;;;31.70;99.90;;;;;;4971401;28;20784;-78
2021/06/09 09:22:49;;;;;;;6.93;6.03;;;31.30;99.90;;;;;;4965329;28;20235;-78
2021/06/09 09:25:18;;;;;;;7.60;6.03;;;31.00;99.90;;;;;;4968987;28;20207;-78
2021/06/09 09:27:56;;;;;;;6.60;5.70;;;31.60;99.90;;;;;;4965524;28;20736;-79
2021/06/09 09:30:25;;;;;;;5.93;5.38;;;32.20;99.90;;;;;;4965769;28;20211;-78
2021/06/09 09:33:04;;;;;;;8.57;5.80;;;32.20;99.90;;;;;;4968258;28;20685;-78
2021/06/09 09:35:32;;;;;;;5.75;5.20;;;31.20;99.90;;;;;;4965546;28;20241;-78
2021/06/09 09:38:14;;;;;;;6.65;5.32;;;31.40;99.90;;;;;;4956033;28;20235;-78
2021/06/09 09:40:59;;;;;;;7.32;5.85;;;31.90;99.90;;;;;;4968319;28;20223;-78
2021/06/09 09:43:51;;;;;;;7.32;6.63;;;30.80;99.90;;;;;;4972021;28;20230;-78
2021/06/09 09:46:20;;;;;;;6.55;5.65;;;31.60;99.90;;;;;;4970053;28;20210;-78
2021/06/09 09:49:04;;;;;;;6.53;5.93;;;32.70;99.90;;;;;;4973518;28;20300;-78
2021/06/09 09:51:32;;;;;;;6.40;5.50;;;33.30;99.90;;;;;;4968511;28;20234;-78
2021/06/09 09:54:01;;;;;;;7.13;6.45;;;33.80;99.90;;;;;;4973670;28;20241;-78
2021/06/09 09:56:29;;;;;;;6.57;5.97;;;32.00;99.90;;;;;;4970849;28;20293;-78
2021/06/09 09:59:02;;;;;;;7.70;6.95;;;32.80;99.90;;;;;;4973040;28;20249;-78
2021/06/09 10:01:32;;;;;;;8.68;7.00;;;32.50;99.90;;;;;;4965439;28;20244;-78
2021/06/09 10:04:06;;;;;;;10.00;6.13;;;32.60;99.90;;;;;;4971131;28;20207;-78
2021/06/09 10:06:34;;;;;;;7.00;6.40;;;32.20;99.90;;;;;;4955181;28;20231;-78
2021/06/09 10:09:10;;;;;;;7.43;6.75;;;31.50;99.90;;;;;;4965701;28;20298;-79
2021/06/09 10:11:40;;;;;;;7.95;6.20;;;30.70;99.90;;;;;;4968850;28;20229;-78
2021/06/09 10:14:24;;;;;;;7.40;6.72;;;31.00;99.90;;;;;;4972433;28;20746;-79
2021/06/09 10:16:59;;;;;;;7.90;6.88;;;31.60;99.90;;;;;;4962401;28;20293;-79
2021/06/09 10:19:29;;;;;;;9.85;6.65;;;31.10;99.90;;;;;;4960805;28;20296;-79
2021/06/09 10:22:00;;;;;;;8.88;5.97;;;31.80;99.90;;;;;;4972403;28;20238;-79
2021/06/09 10:24:27;;;;;;;7.15;6.45;;;32.30;99.90;;;;;;4964941;28;20235;-80
2021/06/09 10:26:59;;;;;;;8.38;6.97;;;32.50;99.90;;;;;;4964360;28;20202;-80
2021/06/09 10:29:28;;;;;;;7.57;6.55;;;33.00;99.90;;;;;;4966254;28;20209;-79
2021/06/09 10:31:59;;;;;;;7.85;7.05;;;33.80;99.90;;;;;;4972923;28;20254;-80
2021/06/09 10:34:27;;;;;;;7.88;7.05;;;34.30;99.90;;;;;;4965851;28;20302;-79
2021/06/09 10:36:55;;;;;;;8.70;7.63;;;33.80;99.90;;;;;;4956077;28;20310;-78
2021/06/09 10:39:24;;;;;;;7.05;6.35;;;33.10;99.90;;;;;;4963691;28;20281;-79
2021/06/09 10:41:52;;;;;;;7.50;6.90;;;32.60;99.90;;;;;;4967128;28;20286;-79
2021/06/09 10:44:20;;;;;;;6.78;5.45;;;32.50;99.90;;;;;;4963466;28;20280;-79
2021/06/09 10:46:49;;;;;;;9.77;7.18;;;33.60;99.90;;;;;;4963830;28;20222;-79
2021/06/09 10:49:19;;;;;;;6.50;5.90;;;33.40;99.90;;;;;;4960527;28;20256;-78
2021/06/09 10:51:48;;;;;;;6.15;5.30;;;32.80;99.90;;;;;;4973598;28;20214;-80
2021/06/09 10:54:16;;;;;;;7.25;6.05;;;33.50;99.90;;;;;;4976172;28;20238;-81
2021/06/09 10:56:46;;;;;;;7.75;5.68;;;34.00;99.90;;;;;;4960986;28;20235;-80
2021/06/09 10:59:18;;;;;;;6.18;5.47;;;33.90;99.90;;;;;;4959941;28;20203;-80
2021/06/09 11:01:46;;;;;;;5.63;5.03;;;33.90;99.90;;;;;;4968053;28;20993;-79
2021/06/09 11:04:13;;;;;;;6.07;4.57;;;32.90;99.90;;;;;;4960744;28;20681;-80
2021/06/09 11:06:44;;;;;;;5.70;4.90;;;32.70;99.90;;;;;;4964737;28;20241;-80
2021/06/09 11:09:22;;;;;;;5.38;3.47;;;32.30;99.90;;;;;;4953810;28;20238;-81
2021/06/09 11:12:17;;;;;;;4.70;3.90;;;34.20;99.90;;;;;;4968458;28;20225;-78
2021/06/09 11:14:48;;;;;;;6.30;4.07;;;34.00;99.90;;;;;;4970206;28;20238;-77
2021/06/09 11:17:16;;;;;;;5.20;3.97;;;32.80;99.90;;;;;;4968703;28;20305;-77
2021/06/09 11:19:46;;;;;;;6.53;3.60;;;32.30;99.90;;;;;;4966756;28;20265;-78
2021/06/09 11:22:24;;;;;;;3.65;3.30;;;32.90;99.90;;;;;;4973329;28;20583;-81
2021/06/09 11:25:13;;;;;;;3.70;3.40;;;32.60;99.90;;;;;;4973047;28;20287;-76
2021/06/09 11:27:58;;;;;;;4.63;3.55;;;31.80;99.90;;;;;;4965962;28;20191;-77
2021/06/09 11:30:51;;;;;;;7.03;3.75;;;32.30;99.90;;;;;;4956220;28;20202;-77
2021/06/09 11:33:44;;;;;;;4.32;3.70;;;31.60;99.90;;;;;;4964872;28;20203;-77
2021/06/09 11:36:27;;;;;;;5.05;3.17;;;31.80;99.90;;;;;;4970254;28;20206;-77
2021/06/09 11:38:58;;;;;;;4.20;2.97;;;32.80;99.90;;;;;;4973563;28;20195;-77
2021/06/09 11:41:27;;;;;;;4.65;3.30;;;33.00;99.90;;;;;;4966957;28;20222;-76
2021/06/09 11:43:55;;;;;;;3.72;2.97;;;34.20;99.90;;;;;;4961155;28;20290;-77
2021/06/09 11:46:23;;;;;;;5.35;3.58;;;35.20;99.90;;;;;;4968335;28;20218;-77
2021/06/09 11:48:56;;;;;;;3.55;3.17;;;34.90;99.90;;;;;;4969417;28;20250;-77
2021/06/09 11:51:27;;;;;;;3.60;3.30;;;33.60;99.90;;;;;;4966493;28;20210;-78
2021/06/09 11:53:57;;;;;;;2.78;2.58;;;35.20;99.90;;;;;;4973366;28;20285;-78
2021/06/09 11:56:27;;;;;;;5.60;4.00;;;35.50;99.90;;;;;;4964518;28;20812;-78
2021/06/09 11:58:55;;;;;;;3.80;3.40;;;35.00;98.70;;;;;;4964245;28;20206;-78
2021/06/09 12:01:23;;;;;;;4.25;3.00;;;34.20;97.20;;;;;;4964896;28;20647;-77
2021/06/09 12:04:13;;;;;;;4.78;3.13;;;34.80;99.00;;;;;;4964491;28;20202;-78
2021/06/09 12:06:41;;;;;;;3.63;3.10;;;34.80;99.90;;;;;;4955804;28;20245;-77
2021/06/09 12:09:09;;;;;;;5.18;3.50;;;35.10;99.10;;;;;;4968536;28;20206;-78
2021/06/09 12:11:38;;;;;;;3.13;2.85;;;33.80;99.10;;;;;;4969302;28;20210;-78
2021/06/09 12:14:23;;;;;;;3.03;2.72;;;33.20;99.90;;;;;;4978530;28;20727;-78
2021/06/09 12:16:55;;;;;;;3.22;2.97;;;31.80;99.90;;;;;;4984257;28;20749;-78
2021/06/09 12:19:42;;;;;;;3.47;3.13;;;32.10;99.90;;;;;;4966311;28;20389;-78
2021/06/09 12:22:11;;;;;;;6.07;3.28;;;31.50;99.90;;;;;;4965922;28;20207;-78
2021/06/09 12:24:40;;;;;;;5.10;3.38;;;30.30;99.90;;;;;;4979623;28;20205;-78
2021/06/09 12:27:09;;;;;;;5.15;3.30;;;29.30;99.90;;;;;;4988409;28;20593;-78
2021/06/09 12:29:38;;;;;;;4.30;2.88;;;29.90;99.90;;;;;;4975568;28;20699;-78
2021/06/09 12:32:20;;;;;;;3.53;2.90;;;30.20;99.90;;;;;;4969255;28;20245;-78
2021/06/09 12:34:55;;;;;;;3.47;2.63;;;32.10;99.90;;;;;;4967870;28;20280;-78
2021/06/09 12:37:23;;;;;;;3.25;2.53;;;35.50;99.90;;;;;;4954040;28;20592;-78
2021/06/09 12:40:07;;;;;;;3.63;2.60;;;35.80;93.10;;;;;;4961186;28;20313;-78
2021/06/09 12:42:35;;;;;;;2.50;2.30;;;35.60;91.40;;;;;;4959146;28;20213;-80
2021/06/09 12:45:05;;;;;;;3.00;2.70;;;35.40;95.40;;;;;;4962416;28;20194;-80
2021/06/09 12:47:34;;;;;;;3.72;3.03;;;34.50;97.10;;;;;;4968900;28;20245;-81
2021/06/09 12:50:16;;;;;;;4.03;2.83;;;34.50;99.90;;;;;;4964317;28;20230;-79
2021/06/09 12:52:44;;;;;;;3.17;2.67;;;33.10;99.30;;;;;;4964836;28;20970;-80
2021/06/09 12:55:15;;;;;;;3.42;2.70;;;33.80;99.90;;;;;;4966220;28;20253;-80